sensor_id;sensor_type;location;lat;lon;timestamp;temperature;humidity
19555;DHT22;9924;50.828;6.440;2022-11-20T00:00:19;4.40;99.90
19555;DHT22;9924;50.828;6.440;2022-11-20T00:03:04;4.40;99.90
19555;DHT22;9924;50.828;6.440;2022-11-20T00:05:49;4.30;99.90
19555;DHT22;9924;50.828;6.440;2022-11-20T00:08:34;4.20;99.90
19555;DHT22;9924;50.828;6.440;2022-11-20T00:11:21;4.30;99.90
19555;DHT22;9924;50.828;6.440;2022-11-20T00:14:08;4.30;99.90
19555;DHT22;9924;50.828;6.440;2022-11-20T00:16:54;4.30;99.90
19555;DHT22;9924;50.828;6.440;2022-11-20T00:19:38;4.40;99.90
19555;DHT22;9924;50.828;6.440;2022-11-20T00:22:24;4.40;99.90
19555;DHT22;9924;50.828;6.440;2022-11-20T00:25:09;4.40;99.90
19555;DHT22;9924;50.828;6.440;2022-11-20T00:27:54;4.40;99.90
19555;DHT22;9924;50.828;6.440;2022-11-20T00:30:41;4.50;99.90
19555;DHT22;9924;50.828;6.440;2022-11-20T00:33:25;4.60;99.90
19555;DHT22;9924;50.828;6.440;2022-11-20T00:36:12;4.50;99.90
19555;DHT22;9924;50.828;6.440;2022-11-20T00:38:58;4.50;99.90
19555;DHT22;9924;50.828;6.440;2022-11-20T00:41:43;4.50;99.90
19555;DHT22;9924;50.828;6.440;2022-11-20T00:44:28;4.50;99.90
19555;DHT22;9924;50.828;6.440;2022-11-20T00:47:13;4.50;99.90
19555;DHT22;9924;50.828;6.440;2022-11-20T00:49:58;4.50;99.90
19555;DHT22;9924;50.828;6.440;2022-11-20T00:52:43;4.50;99.90
19555;DHT22;9924;50.828;6.440;2022-11-20T00:55:27;4.50;99.90
19555;DHT22;9924;50.828;6.440;2022-11-20T00:58:12;4.50;99.90
19555;DHT22;9924;50.828;6.440;2022-11-20T01:01:04;4.50;99.90
19555;DHT22;9924;50.828;6.440;2022-11-20T01:03:50;4.40;99.90
19555;DHT22;9924;50.828;6.440;2022-11-20T01:06:37;4.40;99.90
19555;DHT22;9924;50.828;6.440;2022-11-20T01:09:22;4.40;99.90
19555;DHT22;9924;50.828;6.440;2022-11-20T01:12:07;4.40;99.90
19555;DHT22;9924;50.828;6.440;2022-11-20T01:14:52;4.40;99.90
19555;DHT22;9924;50.828;6.440;2022-11-20T01:17:36;4.30;99.90
19555;DHT22;9924;50.828;6.440;2022-11-20T01:20:21;4.30;99.90
19555;DHT22;9924;50.828;6.440;2022-11-20T01:23:07;4.40;99.90
19555;DHT22;9924;50.828;6.440;2022-11-20T01:25:52;4.40;99.90
19555;DHT22;9924;50.828;6.440;2022-11-20T01:28:37;4.40;99.90
19555;DHT22;9924;50.828;6.440;2022-11-20T01:34:17;4.30;99.90
19555;DHT22;9924;50.828;6.440;2022-11-20T01:37:02;4.40;99.90
19555;DHT22;9924;50.828;6.440;2022-11-20T01:39:47;4.40;99.90
19555;DHT22;9924;50.828;6.440;2022-11-20T01:42:31;4.40;99.90
19555;DHT22;9924;50.828;6.440;2022-11-20T01:45:59;4.40;99.90
19555;DHT22;9924;50.828;6.440;2022-11-20T01:51:44;4.30;99.90
19555;DHT22;9924;50.828;6.440;2022-11-20T01:54:38;4.30;99.90
19555;DHT22;9924;50.828;6.440;2022-11-20T01:57:25;4.30;99.90
19555;DHT22;9924;50.828;6.440;2022-11-20T02:00:16;4.30;99.90
19555;DHT22;9924;50.828;6.440;2022-11-20T02:03:08;4.30;99.90
19555;DHT22;9924;50.828;6.440;2022-11-20T02:06:06;4.20;99.90
19555;DHT22;9924;50.828;6.440;2022-11-20T02:08:52;4.10;99.90
19555;DHT22;9924;50.828;6.440;2022-11-20T02:11:37;4.20;99.90
19555;DHT22;9924;50.828;6.440;2022-11-20T02:14:23;4.10;99.90
19555;DHT22;9924;50.828;6.440;2022-11-20T02:17:09;4.20;99.90
19555;DHT22;9924;50.828;6.440;2022-11-20T02:19:53;4.10;99.90
19555;DHT22;9924;50.828;6.440;2022-11-20T02:22:53;4.00;99.90
19555;DHT22;9924;50.828;6.440;2022-11-20T02:25:41;4.00;99.90
19555;DHT22;9924;50.828;6.440;2022-11-20T02:28:27;4.10;99.90
19555;DHT22;9924;50.828;6.440;2022-11-20T02:31:12;4.20;99.90
19555;DHT22;9924;50.828;6.440;2022-11-20T02:33:57;4.30;99.90
19555;DHT22;9924;50.828;6.440;2022-11-20T02:36:42;4.30;99.90
19555;DHT22;9924;50.828;6.440;2022-11-20T02:39:28;4.20;99.90
19555;DHT22;9924;50.828;6.440;2022-11-20T02:42:14;4.20;99.90
19555;DHT22;9924;50.828;6.440;2022-11-20T02:45:04;4.00;99.90
19555;DHT22;9924;50.828;6.440;2022-11-20T02:47:49;4.00;99.90
19555;DHT22;9924;50.828;6.440;2022-11-20T02:50:37;4.10;99.90
19555;DHT22;9924;50.828;6.440;2022-11-20T02:53:21;4.00;99.90
19555;DHT22;9924;50.828;6.440;2022-11-20T02:56:06;4.00;99.90
19555;DHT22;9924;50.828;6.440;2022-11-20T02:58:51;3.90;99.90
19555;DHT22;9924;50.828;6.440;2022-11-20T03:01:37;3.90;99.90
19555;DHT22;9924;50.828;6.440;2022-11-20T03:04:21;3.90;99.90
19555;DHT22;9924;50.828;6.440;2022-11-20T03:07:07;4.00;99.90
19555;DHT22;9924;50.828;6.440;2022-11-20T03:09:52;4.10;99.90
19555;DHT22;9924;50.828;6.440;2022-11-20T03:12:37;4.10;99.90
19555;DHT22;9924;50.828;6.440;2022-11-20T03:15:23;4.20;99.90
19555;DHT22;9924;50.828;6.440;2022-11-20T03:18:08;4.20;99.90
19555;DHT22;9924;50.828;6.440;2022-11-20T03:20:58;4.20;99.90
19555;DHT22;9924;50.828;6.440;2022-11-20T03:23:43;4.20;99.90
19555;DHT22;9924;50.828;6.440;2022-11-20T03:26:28;4.20;99.90
19555;DHT22;9924;50.828;6.440;2022-11-20T03:29:13;4.20;99.90
19555;DHT22;9924;50.828;6.440;2022-11-20T03:31:58;4.20;99.90
19555;DHT22;9924;50.828;6.440;2022-11-20T03:34:43;4.10;99.90
19555;DHT22;9924;50.828;6.440;2022-11-20T03:37:27;4.10;99.90
19555;DHT22;9924;50.828;6.440;2022-11-20T03:40:12;4.20;99.90
19555;DHT22;9924;50.828;6.440;2022-11-20T03:42:56;4.30;99.90
19555;DHT22;9924;50.828;6.440;2022-11-20T03:45:41;4.30;99.90
19555;DHT22;9924;50.828;6.440;2022-11-20T03:48:27;4.30;99.90
19555;DHT22;9924;50.828;6.440;2022-11-20T03:51:14;4.40;99.90
19555;DHT22;9924;50.828;6.440;2022-11-20T03:54:07;4.40;99.90
19555;DHT22;9924;50.828;6.440;2022-11-20T03:56:52;4.50;99.90
19555;DHT22;9924;50.828;6.440;2022-11-20T03:59:36;4.40;99.90
19555;DHT22;9924;50.828;6.440;2022-11-20T04:02:21;4.40;99.90
19555;DHT22;9924;50.828;6.440;2022-11-20T04:05:06;4.50;99.90
19555;DHT22;9924;50.828;6.440;2022-11-20T04:07:51;4.50;99.90
19555;DHT22;9924;50.828;6.440;2022-11-20T04:10:35;4.50;99.90
19555;DHT22;9924;50.828;6.440;2022-11-20T04:13:20;4.50;99.90
19555;DHT22;9924;50.828;6.440;2022-11-20T04:16:06;4.50;99.90
19555;DHT22;9924;50.828;6.440;2022-11-20T04:18:55;4.50;99.90
19555;DHT22;9924;50.828;6.440;2022-11-20T04:21:41;4.40;99.90
19555;DHT22;9924;50.828;6.440;2022-11-20T04:24:26;4.40;99.90
19555;DHT22;9924;50.828;6.440;2022-11-20T04:27:13;4.30;99.90
19555;DHT22;9924;50.828;6.440;2022-11-20T04:29:59;4.40;99.90
19555;DHT22;9924;50.828;6.440;2022-11-20T04:32:43;4.40;99.90
19555;DHT22;9924;50.828;6.440;2022-11-20T04:35:29;4.40;99.90
19555;DHT22;9924;50.828;6.440;2022-11-20T04:38:13;4.40;99.90
19555;DHT22;9924;50.828;6.440;2022-11-20T04:41:20;4.40;99.90
19555;DHT22;9924;50.828;6.440;2022-11-20T04:44:08;4.50;99.90
19555;DHT22;9924;50.828;6.440;2022-11-20T04:46:52;4.50;99.90
19555;DHT22;9924;50.828;6.440;2022-11-20T04:49:37;4.50;99.90
19555;DHT22;9924;50.828;6.440;2022-11-20T04:52:21;4.50;99.90
19555;DHT22;9924;50.828;6.440;2022-11-20T04:55:07;4.50;99.90
19555;DHT22;9924;50.828;6.440;2022-11-20T04:57:51;4.50;99.90
19555;DHT22;9924;50.828;6.440;2022-11-20T05:00:36;4.50;99.90
19555;DHT22;9924;50.828;6.440;2022-11-20T05:03:21;4.60;99.90
19555;DHT22;9924;50.828;6.440;2022-11-20T05:06:09;4.60;99.90
19555;DHT22;9924;50.828;6.440;2022-11-20T05:08:54;4.60;99.90
19555;DHT22;9924;50.828;6.440;2022-11-20T05:11:39;4.50;99.90
19555;DHT22;9924;50.828;6.440;2022-11-20T05:14:24;4.60;99.90
19555;DHT22;9924;50.828;6.440;2022-11-20T05:17:11;4.60;99.90
19555;DHT22;9924;50.828;6.440;2022-11-20T05:19:57;4.60;99.90
19555;DHT22;9924;50.828;6.440;2022-11-20T05:22:42;4.50;99.90
19555;DHT22;9924;50.828;6.440;2022-11-20T05:25:27;4.50;99.90
19555;DHT22;9924;50.828;6.440;2022-11-20T05:28:11;4.40;99.90
19555;DHT22;9924;50.828;6.440;2022-11-20T05:31:03;4.40;99.90
19555;DHT22;9924;50.828;6.440;2022-11-20T05:33:48;4.50;99.90
19555;DHT22;9924;50.828;6.440;2022-11-20T05:36:35;4.50;99.90
19555;DHT22;9924;50.828;6.440;2022-11-20T05:39:23;4.50;99.90
19555;DHT22;9924;50.828;6.440;2022-11-20T05:42:08;4.50;99.90
19555;DHT22;9924;50.828;6.440;2022-11-20T05:45:11;4.50;99.90
19555;DHT22;9924;50.828;6.440;2022-11-20T05:47:59;4.40;99.90
19555;DHT22;9924;50.828;6.440;2022-11-20T05:50:45;4.50;99.90
19555;DHT22;9924;50.828;6.440;2022-11-20T05:53:29;4.50;99.90
19555;DHT22;9924;50.828;6.440;2022-11-20T05:56:16;4.50;99.90
19555;DHT22;9924;50.828;6.440;2022-11-20T05:59:04;4.50;99.90
19555;DHT22;9924;50.828;6.440;2022-11-20T06:01:48;4.50;99.90
19555;DHT22;9924;50.828;6.440;2022-11-20T06:04:33;4.50;99.90
19555;DHT22;9924;50.828;6.440;2022-11-20T06:07:17;4.50;99.90
19555;DHT22;9924;50.828;6.440;2022-11-20T06:10:02;4.50;99.90
19555;DHT22;9924;50.828;6.440;2022-11-20T06:12:47;4.50;99.90
19555;DHT22;9924;50.828;6.440;2022-11-20T06:15:31;4.50;99.90
19555;DHT22;9924;50.828;6.440;2022-11-20T06:18:20;4.60;99.90
19555;DHT22;9924;50.828;6.440;2022-11-20T06:21:12;4.60;99.90
19555;DHT22;9924;50.828;6.440;2022-11-20T06:23:57;4.60;99.90
19555;DHT22;9924;50.828;6.440;2022-11-20T06:26:42;4.60;99.90
19555;DHT22;9924;50.828;6.440;2022-11-20T06:29:27;4.60;99.90
19555;DHT22;9924;50.828;6.440;2022-11-20T06:32:11;4.60;99.90
19555;DHT22;9924;50.828;6.440;2022-11-20T06:34:58;4.60;99.90
19555;DHT22;9924;50.828;6.440;2022-11-20T06:37:43;4.60;99.90
19555;DHT22;9924;50.828;6.440;2022-11-20T06:40:28;4.60;99.90
19555;DHT22;9924;50.828;6.440;2022-11-20T06:43:12;4.70;99.90
19555;DHT22;9924;50.828;6.440;2022-11-20T06:45:58;4.70;99.90
19555;DHT22;9924;50.828;6.440;2022-11-20T06:48:43;4.70;99.90
19555;DHT22;9924;50.828;6.440;2022-11-20T06:51:28;4.70;99.90
19555;DHT22;9924;50.828;6.440;2022-11-20T06:54:13;4.70;99.90
19555;DHT22;9924;50.828;6.440;2022-11-20T06:56:58;4.70;99.90
19555;DHT22;9924;50.828;6.440;2022-11-20T06:59:45;4.70;99.90
19555;DHT22;9924;50.828;6.440;2022-11-20T07:02:30;4.70;99.90
19555;DHT22;9924;50.828;6.440;2022-11-20T07:05:16;4.70;99.90
19555;DHT22;9924;50.828;6.440;2022-11-20T07:08:01;4.70;99.90
19555;DHT22;9924;50.828;6.440;2022-11-20T07:10:46;4.60;99.90
19555;DHT22;9924;50.828;6.440;2022-11-20T07:13:34;4.60;99.90
19555;DHT22;9924;50.828;6.440;2022-11-20T07:16:19;4.60;99.90
19555;DHT22;9924;50.828;6.440;2022-11-20T07:19:04;4.60;99.90
19555;DHT22;9924;50.828;6.440;2022-11-20T07:21:51;4.60;99.90
19555;DHT22;9924;50.828;6.440;2022-11-20T07:24:35;4.60;99.90
19555;DHT22;9924;50.828;6.440;2022-11-20T07:27:20;4.60;99.90
19555;DHT22;9924;50.828;6.440;2022-11-20T07:30:05;4.70;99.90
19555;DHT22;9924;50.828;6.440;2022-11-20T07:32:52;4.70;99.90
19555;DHT22;9924;50.828;6.440;2022-11-20T07:35:37;4.70;99.90
19555;DHT22;9924;50.828;6.440;2022-11-20T07:38:24;4.70;99.90
19555;DHT22;9924;50.828;6.440;2022-11-20T07:41:09;4.70;99.90
19555;DHT22;9924;50.828;6.440;2022-11-20T07:43:54;4.70;99.90
19555;DHT22;9924;50.828;6.440;2022-11-20T07:46:39;4.80;99.90
19555;DHT22;9924;50.828;6.440;2022-11-20T07:49:24;4.80;99.90
19555;DHT22;9924;50.828;6.440;2022-11-20T07:55:43;4.90;99.90
19555;DHT22;9924;50.828;6.440;2022-11-20T07:58:28;4.80;99.90
19555;DHT22;9924;50.828;6.440;2022-11-20T08:01:13;4.90;99.90
19555;DHT22;9924;50.828;6.440;2022-11-20T08:03:59;4.90;99.90
19555;DHT22;9924;50.828;6.440;2022-11-20T08:06:43;5.00;99.90
19555;DHT22;9924;50.828;6.440;2022-11-20T08:09:29;5.10;99.90
19555;DHT22;9924;50.828;6.440;2022-11-20T08:12:20;5.10;99.90
19555;DHT22;9924;50.828;6.440;2022-11-20T08:15:24;5.10;99.90
19555;DHT22;9924;50.828;6.440;2022-11-20T08:18:12;5.10;99.90
19555;DHT22;9924;50.828;6.440;2022-11-20T08:20:58;5.10;99.90
19555;DHT22;9924;50.828;6.440;2022-11-20T08:23:42;5.10;99.90
19555;DHT22;9924;50.828;6.440;2022-11-20T08:26:27;5.00;99.90
19555;DHT22;9924;50.828;6.440;2022-11-20T08:29:12;5.00;99.90
19555;DHT22;9924;50.828;6.440;2022-11-20T08:31:57;5.00;99.90
19555;DHT22;9924;50.828;6.440;2022-11-20T08:34:41;5.10;99.90
19555;DHT22;9924;50.828;6.440;2022-11-20T08:37:27;5.10;99.90
19555;DHT22;9924;50.828;6.440;2022-11-20T08:40:11;5.10;99.90
19555;DHT22;9924;50.828;6.440;2022-11-20T08:42:56;5.20;99.90
19555;DHT22;9924;50.828;6.440;2022-11-20T08:45:40;5.30;99.90
19555;DHT22;9924;50.828;6.440;2022-11-20T08:48:25;5.30;99.90
19555;DHT22;9924;50.828;6.440;2022-11-20T08:51:11;5.40;99.90
19555;DHT22;9924;50.828;6.440;2022-11-20T08:53:56;5.40;99.90
19555;DHT22;9924;50.828;6.440;2022-11-20T08:56:40;5.50;99.90
19555;DHT22;9924;50.828;6.440;2022-11-20T08:59:25;5.50;99.90
19555;DHT22;9924;50.828;6.440;2022-11-20T09:02:09;5.50;99.90
19555;DHT22;9924;50.828;6.440;2022-11-20T09:04:54;5.70;99.90
19555;DHT22;9924;50.828;6.440;2022-11-20T09:07:39;5.80;99.90
19555;DHT22;9924;50.828;6.440;2022-11-20T09:10:26;5.80;99.90
19555;DHT22;9924;50.828;6.440;2022-11-20T09:13:10;5.80;99.90
19555;DHT22;9924;50.828;6.440;2022-11-20T09:16:06;5.90;99.90
19555;DHT22;9924;50.828;6.440;2022-11-20T09:18:51;5.90;99.90
19555;DHT22;9924;50.828;6.440;2022-11-20T09:21:36;5.90;99.90
19555;DHT22;9924;50.828;6.440;2022-11-20T09:24:21;5.90;99.90
19555;DHT22;9924;50.828;6.440;2022-11-20T09:27:06;6.10;99.90
19555;DHT22;9924;50.828;6.440;2022-11-20T09:29:50;6.20;99.90
19555;DHT22;9924;50.828;6.440;2022-11-20T09:32:36;6.30;99.90
19555;DHT22;9924;50.828;6.440;2022-11-20T09:35:23;6.30;99.90
19555;DHT22;9924;50.828;6.440;2022-11-20T09:38:08;6.30;99.90
19555;DHT22;9924;50.828;6.440;2022-11-20T09:41:05;6.20;99.90
19555;DHT22;9924;50.828;6.440;2022-11-20T09:50:45;6.10;99.90
19555;DHT22;9924;50.828;6.440;2022-11-20T09:53:51;6.10;99.90
19555;DHT22;9924;50.828;6.440;2022-11-20T09:56:40;6.00;99.90
19555;DHT22;9924;50.828;6.440;2022-11-20T10:08:07;6.10;99.90
19555;DHT22;9924;50.828;6.440;2022-11-20T10:24:23;6.20;99.90
19555;DHT22;9924;50.828;6.440;2022-11-20T10:27:37;6.20;99.90
19555;DHT22;9924;50.828;6.440;2022-11-20T10:30:24;6.20;99.90
19555;DHT22;9924;50.828;6.440;2022-11-20T10:33:27;6.20;99.90
19555;DHT22;9924;50.828;6.440;2022-11-20T10:36:16;6.10;99.90
19555;DHT22;9924;50.828;6.440;2022-11-20T10:39:10;6.10;99.90
19555;DHT22;9924;50.828;6.440;2022-11-20T10:42:01;6.10;99.90
19555;DHT22;9924;50.828;6.440;2022-11-20T10:44:55;6.00;99.90
19555;DHT22;9924;50.828;6.440;2022-11-20T10:47:45;5.90;99.90
19555;DHT22;9924;50.828;6.440;2022-11-20T10:50:30;5.90;99.90
19555;DHT22;9924;50.828;6.440;2022-11-20T10:59:32;5.80;99.90
19555;DHT22;9924;50.828;6.440;2022-11-20T11:02:21;5.80;99.90
19555;DHT22;9924;50.828;6.440;2022-11-20T11:08:00;5.90;99.90
19555;DHT22;9924;50.828;6.440;2022-11-20T11:10:55;6.00;99.90
19555;DHT22;9924;50.828;6.440;2022-11-20T11:13:41;6.00;99.90
19555;DHT22;9924;50.828;6.440;2022-11-20T11:16:26;5.90;99.90
19555;DHT22;9924;50.828;6.440;2022-11-20T11:19:14;5.90;99.90
19555;DHT22;9924;50.828;6.440;2022-11-20T11:22:16;5.90;99.90
19555;DHT22;9924;50.828;6.440;2022-11-20T11:25:02;5.90;99.90
19555;DHT22;9924;50.828;6.440;2022-11-20T11:27:48;5.90;99.90
19555;DHT22;9924;50.828;6.440;2022-11-20T11:30:43;5.80;99.90
19555;DHT22;9924;50.828;6.440;2022-11-20T11:33:33;5.90;99.90
19555;DHT22;9924;50.828;6.440;2022-11-20T11:36:22;5.70;99.90
19555;DHT22;9924;50.828;6.440;2022-11-20T11:39:20;5.90;99.90
19555;DHT22;9924;50.828;6.440;2022-11-20T11:42:05;6.10;99.90
19555;DHT22;9924;50.828;6.440;2022-11-20T11:44:58;6.20;99.90
19555;DHT22;9924;50.828;6.440;2022-11-20T11:47:51;6.30;99.90
19555;DHT22;9924;50.828;6.440;2022-11-20T11:50:49;6.50;99.90
19555;DHT22;9924;50.828;6.440;2022-11-20T11:54:04;6.70;99.90
19555;DHT22;9924;50.828;6.440;2022-11-20T12:00:51;6.70;99.90
19555;DHT22;9924;50.828;6.440;2022-11-20T12:03:40;6.90;99.90
19555;DHT22;9924;50.828;6.440;2022-11-20T12:06:31;7.10;99.90
19555;DHT22;9924;50.828;6.440;2022-11-20T12:09:20;7.00;99.90
19555;DHT22;9924;50.828;6.440;2022-11-20T12:12:17;6.90;99.90
19555;DHT22;9924;50.828;6.440;2022-11-20T12:15:06;6.90;99.90
19555;DHT22;9924;50.828;6.440;2022-11-20T12:22:31;6.80;99.90
19555;DHT22;9924;50.828;6.440;2022-11-20T12:25:32;6.80;99.90
19555;DHT22;9924;50.828;6.440;2022-11-20T12:31:53;6.90;99.90
19555;DHT22;9924;50.828;6.440;2022-11-20T12:44:02;6.90;99.90
19555;DHT22;9924;50.828;6.440;2022-11-20T12:47:18;6.80;99.90
19555;DHT22;9924;50.828;6.440;2022-11-20T13:03:06;7.00;99.90
19555;DHT22;9924;50.828;6.440;2022-11-20T13:06:18;7.10;99.90
19555;DHT22;9924;50.828;6.440;2022-11-20T13:17:59;7.10;99.90
19555;DHT22;9924;50.828;6.440;2022-11-20T13:20:47;7.10;99.90
19555;DHT22;9924;50.828;6.440;2022-11-20T13:23:34;7.10;99.90
19555;DHT22;9924;50.828;6.440;2022-11-20T13:26:23;7.20;99.90
19555;DHT22;9924;50.828;6.440;2022-11-20T13:29:19;7.20;99.90
19555;DHT22;9924;50.828;6.440;2022-11-20T13:32:16;7.20;99.90
19555;DHT22;9924;50.828;6.440;2022-11-20T13:35:03;7.30;99.90
19555;DHT22;9924;50.828;6.440;2022-11-20T13:38:00;7.40;99.90
19555;DHT22;9924;50.828;6.440;2022-11-20T13:40:59;7.40;99.90
19555;DHT22;9924;50.828;6.440;2022-11-20T13:46:54;7.50;99.90
19555;DHT22;9924;50.828;6.440;2022-11-20T13:49:40;7.50;99.90
19555;DHT22;9924;50.828;6.440;2022-11-20T13:56:05;7.50;99.90
19555;DHT22;9924;50.828;6.440;2022-11-20T13:59:28;7.40;99.90
19555;DHT22;9924;50.828;6.440;2022-11-20T14:02:18;7.40;99.90
19555;DHT22;9924;50.828;6.440;2022-11-20T14:05:04;7.40;99.90
19555;DHT22;9924;50.828;6.440;2022-11-20T14:07:52;7.30;99.90
19555;DHT22;9924;50.828;6.440;2022-11-20T14:10:40;7.30;99.90
19555;DHT22;9924;50.828;6.440;2022-11-20T14:13:24;7.20;99.90
19555;DHT22;9924;50.828;6.440;2022-11-20T14:16:09;7.20;99.90
19555;DHT22;9924;50.828;6.440;2022-11-20T14:18:54;7.20;99.90
19555;DHT22;9924;50.828;6.440;2022-11-20T14:21:39;7.20;99.90
19555;DHT22;9924;50.828;6.440;2022-11-20T14:24:25;7.20;99.90
19555;DHT22;9924;50.828;6.440;2022-11-20T14:27:28;7.10;99.90
19555;DHT22;9924;50.828;6.440;2022-11-20T14:33:02;7.10;99.90
19555;DHT22;9924;50.828;6.440;2022-11-20T14:35:49;7.00;99.90
19555;DHT22;9924;50.828;6.440;2022-11-20T14:38:34;7.10;99.90
19555;DHT22;9924;50.828;6.440;2022-11-20T14:41:22;7.10;99.90
19555;DHT22;9924;50.828;6.440;2022-11-20T14:44:12;7.10;99.90
19555;DHT22;9924;50.828;6.440;2022-11-20T14:46:57;7.10;99.90
19555;DHT22;9924;50.828;6.440;2022-11-20T14:49:43;7.10;99.90
19555;DHT22;9924;50.828;6.440;2022-11-20T14:52:27;7.10;99.90
19555;DHT22;9924;50.828;6.440;2022-11-20T14:55:14;7.20;99.90
19555;DHT22;9924;50.828;6.440;2022-11-20T14:58:26;7.20;99.90
19555;DHT22;9924;50.828;6.440;2022-11-20T15:01:12;7.20;99.90
19555;DHT22;9924;50.828;6.440;2022-11-20T15:04:10;7.30;99.90
19555;DHT22;9924;50.828;6.440;2022-11-20T15:06:56;7.20;99.90
19555;DHT22;9924;50.828;6.440;2022-11-20T15:09:40;7.20;99.90
19555;DHT22;9924;50.828;6.440;2022-11-20T15:12:25;7.20;99.90
19555;DHT22;9924;50.828;6.440;2022-11-20T15:15:12;7.20;99.90
19555;DHT22;9924;50.828;6.440;2022-11-20T15:17:59;7.20;99.90
19555;DHT22;9924;50.828;6.440;2022-11-20T15:20:46;7.30;99.90
19555;DHT22;9924;50.828;6.440;2022-11-20T15:23:31;7.30;99.90
19555;DHT22;9924;50.828;6.440;2022-11-20T15:26:26;7.30;99.90
19555;DHT22;9924;50.828;6.440;2022-11-20T15:29:13;7.30;99.90
19555;DHT22;9924;50.828;6.440;2022-11-20T15:31:58;7.30;99.90
19555;DHT22;9924;50.828;6.440;2022-11-20T15:34:42;7.30;99.90
19555;DHT22;9924;50.828;6.440;2022-11-20T15:37:27;7.20;99.90
19555;DHT22;9924;50.828;6.440;2022-11-20T15:40:12;7.20;99.90
19555;DHT22;9924;50.828;6.440;2022-11-20T15:42:56;7.20;99.90
19555;DHT22;9924;50.828;6.440;2022-11-20T15:45:49;7.20;99.90
19555;DHT22;9924;50.828;6.440;2022-11-20T15:48:40;7.10;99.90
19555;DHT22;9924;50.828;6.440;2022-11-20T15:51:34;7.00;99.90
19555;DHT22;9924;50.828;6.440;2022-11-20T15:54:21;7.00;99.90
19555;DHT22;9924;50.828;6.440;2022-11-20T15:57:06;7.00;99.90
19555;DHT22;9924;50.828;6.440;2022-11-20T15:59:50;6.90;99.90
19555;DHT22;9924;50.828;6.440;2022-11-20T16:02:34;6.90;99.90
19555;DHT22;9924;50.828;6.440;2022-11-20T16:05:19;6.80;99.90
19555;DHT22;9924;50.828;6.440;2022-11-20T16:08:04;6.70;99.90
19555;DHT22;9924;50.828;6.440;2022-11-20T16:10:49;6.80;99.90
19555;DHT22;9924;50.828;6.440;2022-11-20T16:13:34;6.80;99.90
19555;DHT22;9924;50.828;6.440;2022-11-20T16:16:37;6.80;99.90
19555;DHT22;9924;50.828;6.440;2022-11-20T16:19:24;6.80;99.90
19555;DHT22;9924;50.828;6.440;2022-11-20T16:22:10;6.80;99.90
19555;DHT22;9924;50.828;6.440;2022-11-20T16:24:54;6.80;99.90
19555;DHT22;9924;50.828;6.440;2022-11-20T16:27:40;6.70;99.90
19555;DHT22;9924;50.828;6.440;2022-11-20T16:30:24;6.70;99.90
19555;DHT22;9924;50.828;6.440;2022-11-20T16:33:14;6.80;99.90
19555;DHT22;9924;50.828;6.440;2022-11-20T16:36:07;6.70;99.90
19555;DHT22;9924;50.828;6.440;2022-11-20T16:38:53;6.70;99.90
19555;DHT22;9924;50.828;6.440;2022-11-20T16:41:40;6.70;99.90
19555;DHT22;9924;50.828;6.440;2022-11-20T16:44:25;6.70;99.90
19555;DHT22;9924;50.828;6.440;2022-11-20T16:47:10;6.70;99.90
19555;DHT22;9924;50.828;6.440;2022-11-20T16:49:54;6.70;99.90
19555;DHT22;9924;50.828;6.440;2022-11-20T16:52:39;6.60;99.90
19555;DHT22;9924;50.828;6.440;2022-11-20T16:55:24;6.70;99.90
19555;DHT22;9924;50.828;6.440;2022-11-20T16:58:08;6.70;99.90
19555;DHT22;9924;50.828;6.440;2022-11-20T17:00:53;6.70;99.90
19555;DHT22;9924;50.828;6.440;2022-11-20T17:03:38;6.70;99.90
19555;DHT22;9924;50.828;6.440;2022-11-20T17:06:28;6.80;99.90
19555;DHT22;9924;50.828;6.440;2022-11-20T17:09:13;6.80;99.90
19555;DHT22;9924;50.828;6.440;2022-11-20T17:11:59;6.80;99.90
19555;DHT22;9924;50.828;6.440;2022-11-20T17:14:43;6.80;99.90
19555;DHT22;9924;50.828;6.440;2022-11-20T17:17:29;6.90;99.90
19555;DHT22;9924;50.828;6.440;2022-11-20T17:20:13;6.90;99.90
19555;DHT22;9924;50.828;6.440;2022-11-20T17:22:58;7.00;99.90
19555;DHT22;9924;50.828;6.440;2022-11-20T17:25:42;7.00;99.90
19555;DHT22;9924;50.828;6.440;2022-11-20T17:28:28;7.10;99.90
19555;DHT22;9924;50.828;6.440;2022-11-20T17:31:16;7.20;99.90
19555;DHT22;9924;50.828;6.440;2022-11-20T17:34:01;7.20;99.90
19555;DHT22;9924;50.828;6.440;2022-11-20T17:36:45;7.20;99.90
19555;DHT22;9924;50.828;6.440;2022-11-20T17:39:30;7.30;99.90
19555;DHT22;9924;50.828;6.440;2022-11-20T17:42:15;7.30;99.90
19555;DHT22;9924;50.828;6.440;2022-11-20T17:45:13;7.40;99.90
19555;DHT22;9924;50.828;6.440;2022-11-20T17:47:58;7.40;99.90
19555;DHT22;9924;50.828;6.440;2022-11-20T17:50:42;7.40;99.90
19555;DHT22;9924;50.828;6.440;2022-11-20T17:53:27;7.50;99.90
19555;DHT22;9924;50.828;6.440;2022-11-20T17:56:12;7.50;99.90
19555;DHT22;9924;50.828;6.440;2022-11-20T17:59:16;7.50;99.90
19555;DHT22;9924;50.828;6.440;2022-11-20T18:02:01;7.50;99.90
19555;DHT22;9924;50.828;6.440;2022-11-20T18:04:46;7.60;99.90
19555;DHT22;9924;50.828;6.440;2022-11-20T18:07:30;7.60;99.90
19555;DHT22;9924;50.828;6.440;2022-11-20T18:10:15;7.60;99.90
19555;DHT22;9924;50.828;6.440;2022-11-20T18:13:00;7.60;99.90
19555;DHT22;9924;50.828;6.440;2022-11-20T18:15:45;7.70;99.90
19555;DHT22;9924;50.828;6.440;2022-11-20T18:18:30;7.70;99.90
19555;DHT22;9924;50.828;6.440;2022-11-20T18:21:14;7.80;99.90
19555;DHT22;9924;50.828;6.440;2022-11-20T18:23:59;7.80;99.90
19555;DHT22;9924;50.828;6.440;2022-11-20T18:26:44;7.70;99.90
19555;DHT22;9924;50.828;6.440;2022-11-20T18:29:29;7.70;99.90
19555;DHT22;9924;50.828;6.440;2022-11-20T18:32:14;7.70;99.90
19555;DHT22;9924;50.828;6.440;2022-11-20T18:34:58;7.70;99.90
19555;DHT22;9924;50.828;6.440;2022-11-20T18:37:43;7.80;99.90
19555;DHT22;9924;50.828;6.440;2022-11-20T18:40:28;7.80;99.90
19555;DHT22;9924;50.828;6.440;2022-11-20T18:43:15;7.80;99.90
19555;DHT22;9924;50.828;6.440;2022-11-20T18:46:19;7.90;99.90
19555;DHT22;9924;50.828;6.440;2022-11-20T18:49:05;7.90;99.90
19555;DHT22;9924;50.828;6.440;2022-11-20T18:51:49;7.90;99.90
19555;DHT22;9924;50.828;6.440;2022-11-20T18:54:35;7.90;99.90
19555;DHT22;9924;50.828;6.440;2022-11-20T18:57:22;7.90;99.90
19555;DHT22;9924;50.828;6.440;2022-11-20T19:00:08;7.90;99.90
19555;DHT22;9924;50.828;6.440;2022-11-20T19:02:53;7.90;99.90
19555;DHT22;9924;50.828;6.440;2022-11-20T19:05:41;7.90;99.90
19555;DHT22;9924;50.828;6.440;2022-11-20T19:08:26;7.90;99.90
19555;DHT22;9924;50.828;6.440;2022-11-20T19:11:12;7.90;99.90
19555;DHT22;9924;50.828;6.440;2022-11-20T19:13:57;7.80;99.90
19555;DHT22;9924;50.828;6.440;2022-11-20T19:16:41;7.80;99.90
19555;DHT22;9924;50.828;6.440;2022-11-20T19:19:26;7.80;99.90
19555;DHT22;9924;50.828;6.440;2022-11-20T19:22:12;7.80;99.90
19555;DHT22;9924;50.828;6.440;2022-11-20T19:24:56;7.80;99.90
19555;DHT22;9924;50.828;6.440;2022-11-20T19:27:40;7.90;99.90
19555;DHT22;9924;50.828;6.440;2022-11-20T19:30:25;8.00;99.90
19555;DHT22;9924;50.828;6.440;2022-11-20T19:33:09;8.00;99.90
19555;DHT22;9924;50.828;6.440;2022-11-20T19:36:16;8.00;99.90
19555;DHT22;9924;50.828;6.440;2022-11-20T19:39:03;8.00;99.90
19555;DHT22;9924;50.828;6.440;2022-11-20T19:41:49;8.10;99.90
19555;DHT22;9924;50.828;6.440;2022-11-20T19:44:38;8.10;99.90
19555;DHT22;9924;50.828;6.440;2022-11-20T19:47:23;8.10;99.90
19555;DHT22;9924;50.828;6.440;2022-11-20T19:50:11;8.10;99.90
19555;DHT22;9924;50.828;6.440;2022-11-20T19:52:55;8.00;99.90